sensor_id;sensor_type;location;lat;lon;timestamp;pressure;altitude;pressure_sealevel;temperature;humidity
71805;BME280;59654;52.216;5.616;2023-05-24T00:00:18;102251.78;;;5.49;87.61
71805;BME280;59654;52.216;5.616;2023-05-24T00:00:49;102248.25;;;5.48;87.21
71805;BME280;59654;52.216;5.616;2023-05-24T00:01:22;102261.50;;;5.48;87.46
71805;BME280;59654;52.216;5.616;2023-05-24T00:01:56;102256.19;;;5.48;87.30
71805;BME280;59654;52.216;5.616;2023-05-24T00:02:26;102250.03;;;5.48;87.77
71805;BME280;59654;52.216;5.616;2023-05-24T00:02:57;102253.56;;;5.48;87.17
71805;BME280;59654;52.216;5.616;2023-05-24T00:03:28;102246.47;;;5.46;87.09
71805;BME280;59654;52.216;5.616;2023-05-24T00:04:00;102249.13;;;5.46;87.11
71805;BME280;59654;52.216;5.616;2023-05-24T00:04:31;102249.16;;;5.44;87.24
71805;BME280;59654;52.216;5.616;2023-05-24T00:05:02;102246.50;;;5.43;87.18
71805;BME280;59654;52.216;5.616;2023-05-24T00:05:33;102248.25;;;5.44;87.04
71805;BME280;59654;52.216;5.616;2023-05-24T00:06:07;102246.50;;;5.43;87.55
71805;BME280;59654;52.216;5.616;2023-05-24T00:06:37;102248.25;;;5.42;87.46
71805;BME280;59654;52.216;5.616;2023-05-24T00:07:08;102243.84;;;5.41;87.18
71805;BME280;59654;52.216;5.616;2023-05-24T00:07:39;102243.81;;;5.39;86.98
71805;BME280;59654;52.216;5.616;2023-05-24T00:08:10;102248.22;;;5.37;87.23
71805;BME280;59654;52.216;5.616;2023-05-24T00:08:41;102239.38;;;5.34;87.29
71805;BME280;59654;52.216;5.616;2023-05-24T00:09:11;102248.19;;;5.34;87.42
71805;BME280;59654;52.216;5.616;2023-05-24T00:09:42;102245.53;;;5.33;87.57
71805;BME280;59654;52.216;5.616;2023-05-24T00:10:13;102246.41;;;5.32;87.91
71805;BME280;59654;52.216;5.616;2023-05-24T00:10:44;102249.06;;;5.32;87.90
71805;BME280;59654;52.216;5.616;2023-05-24T00:11:15;102246.41;;;5.32;87.73
71805;BME280;59654;52.216;5.616;2023-05-24T00:11:46;102242.91;;;5.33;88.14
71805;BME280;59654;52.216;5.616;2023-05-24T00:12:17;102245.53;;;5.33;88.17
71805;BME280;59654;52.216;5.616;2023-05-24T00:12:48;102241.13;;;5.33;87.96
71805;BME280;59654;52.216;5.616;2023-05-24T00:13:19;102242.03;;;5.35;88.07
71805;BME280;59654;52.216;5.616;2023-05-24T00:13:49;102240.25;;;5.34;87.90
71805;BME280;59654;52.216;5.616;2023-05-24T00:14:20;102234.97;;;5.33;87.89
71805;BME280;59654;52.216;5.616;2023-05-24T00:14:51;102241.16;;;5.35;87.78
71805;BME280;59654;52.216;5.616;2023-05-24T00:15:22;102231.44;;;5.35;87.78
71805;BME280;59654;52.216;5.616;2023-05-24T00:15:53;102232.34;;;5.37;87.79
71805;BME280;59654;52.216;5.616;2023-05-24T00:16:24;102237.63;;;5.36;87.08
71805;BME280;59654;52.216;5.616;2023-05-24T00:16:55;102232.31;;;5.34;87.43
71805;BME280;59654;52.216;5.616;2023-05-24T00:17:25;102230.56;;;5.33;87.47
71805;BME280;59654;52.216;5.616;2023-05-24T00:17:59;102230.56;;;5.33;87.28
71805;BME280;59654;52.216;5.616;2023-05-24T00:18:30;102232.31;;;5.33;86.87
71805;BME280;59654;52.216;5.616;2023-05-24T00:19:01;102231.38;;;5.31;86.93
71805;BME280;59654;52.216;5.616;2023-05-24T00:19:32;102231.38;;;5.31;87.06
71805;BME280;59654;52.216;5.616;2023-05-24T00:20:02;102232.25;;;5.31;87.30
71805;BME280;59654;52.216;5.616;2023-05-24T00:20:34;102226.97;;;5.31;86.87
71805;BME280;59654;52.216;5.616;2023-05-24T00:21:05;102227.91;;;5.32;86.74
71805;BME280;59654;52.216;5.616;2023-05-24T00:21:37;102226.97;;;5.31;86.75
71805;BME280;59654;52.216;5.616;2023-05-24T00:22:08;102226.97;;;5.30;86.38
71805;BME280;59654;52.216;5.616;2023-05-24T00:22:40;102223.44;;;5.29;86.92
71805;BME280;59654;52.216;5.616;2023-05-24T00:23:11;102230.47;;;5.29;86.62
71805;BME280;59654;52.216;5.616;2023-05-24T00:23:42;102239.31;;;5.29;87.07
71805;BME280;59654;52.216;5.616;2023-05-24T00:24:14;102233.16;;;5.27;86.54
71805;BME280;59654;52.216;5.616;2023-05-24T00:24:47;102231.38;;;5.25;86.82
71805;BME280;59654;52.216;5.616;2023-05-24T00:25:18;102229.59;;;5.24;87.15
71805;BME280;59654;52.216;5.616;2023-05-24T00:25:48;102238.41;;;5.23;86.98
71805;BME280;59654;52.216;5.616;2023-05-24T00:26:20;102228.72;;;5.23;87.48
71805;BME280;59654;52.216;5.616;2023-05-24T00:26:56;102227.84;;;5.24;87.06
71805;BME280;59654;52.216;5.616;2023-05-24T00:27:27;102229.59;;;5.24;87.36
71805;BME280;59654;52.216;5.616;2023-05-24T00:27:58;102234.88;;;5.24;87.15
71805;BME280;59654;52.216;5.616;2023-05-24T00:28:29;102230.47;;;5.21;87.23
71805;BME280;59654;52.216;5.616;2023-05-24T00:29:00;102229.53;;;5.18;87.20
71805;BME280;59654;52.216;5.616;2023-05-24T00:29:31;102235.69;;;5.15;87.40
71805;BME280;59654;52.216;5.616;2023-05-24T00:30:04;102229.53;;;5.12;87.66
71805;BME280;59654;52.216;5.616;2023-05-24T00:30:36;102232.16;;;5.13;87.37
71805;BME280;59654;52.216;5.616;2023-05-24T00:31:07;102233.03;;;5.11;86.94
71805;BME280;59654;52.216;5.616;2023-05-24T00:31:38;102230.38;;;5.09;86.72
71805;BME280;59654;52.216;5.616;2023-05-24T00:32:08;102235.69;;;5.09;86.74
71805;BME280;59654;52.216;5.616;2023-05-24T00:32:40;102229.50;;;5.08;86.61
71805;BME280;59654;52.216;5.616;2023-05-24T00:33:11;102233.91;;;5.10;86.85
71805;BME280;59654;52.216;5.616;2023-05-24T00:33:42;102229.50;;;5.10;86.52
71805;BME280;59654;52.216;5.616;2023-05-24T00:34:13;102233.03;;;5.09;86.42
71805;BME280;59654;52.216;5.616;2023-05-24T00:34:44;102232.13;;;5.07;86.28
71805;BME280;59654;52.216;5.616;2023-05-24T00:35:15;102230.38;;;5.06;85.88
71805;BME280;59654;52.216;5.616;2023-05-24T00:35:46;102226.81;;;5.04;86.05
71805;BME280;59654;52.216;5.616;2023-05-24T00:36:17;102223.28;;;5.02;86.26
71805;BME280;59654;52.216;5.616;2023-05-24T00:36:51;102225.03;;;5.03;86.13
71805;BME280;59654;52.216;5.616;2023-05-24T00:37:21;102225.94;;;5.03;86.06
71805;BME280;59654;52.216;5.616;2023-05-24T00:37:52;102228.59;;;5.06;86.06
71805;BME280;59654;52.216;5.616;2023-05-24T00:38:27;102223.31;;;5.06;85.73
71805;BME280;59654;52.216;5.616;2023-05-24T00:38:58;102228.59;;;5.06;86.05
71805;BME280;59654;52.216;5.616;2023-05-24T00:39:28;102227.75;;;5.09;86.06
71805;BME280;59654;52.216;5.616;2023-05-24T00:39:59;102220.69;;;5.08;85.87
71805;BME280;59654;52.216;5.616;2023-05-24T00:40:30;102219.78;;;5.06;85.82
71805;BME280;59654;52.216;5.616;2023-05-24T00:41:01;102218.03;;;5.08;86.06
71805;BME280;59654;52.216;5.616;2023-05-24T00:41:32;102218.03;;;5.06;86.11
71805;BME280;59654;52.216;5.616;2023-05-24T00:42:03;102223.31;;;5.08;86.09
71805;BME280;59654;52.216;5.616;2023-05-24T00:42:34;102216.28;;;5.07;86.12
71805;BME280;59654;52.216;5.616;2023-05-24T00:43:05;102216.28;;;5.07;86.37
71805;BME280;59654;52.216;5.616;2023-05-24T00:43:36;102215.38;;;5.06;86.16
71805;BME280;59654;52.216;5.616;2023-05-24T00:44:07;102206.56;;;5.04;86.20
71805;BME280;59654;52.216;5.616;2023-05-24T00:44:40;102215.38;;;5.05;86.52
71805;BME280;59654;52.216;5.616;2023-05-24T00:45:11;102217.13;;;5.04;86.36
71805;BME280;59654;52.216;5.616;2023-05-24T00:45:42;102218.00;;;5.03;86.24
71805;BME280;59654;52.216;5.616;2023-05-24T00:46:20;102218.00;;;5.02;86.11
71805;BME280;59654;52.216;5.616;2023-05-24T00:46:52;102218.88;;;5.02;86.24
71805;BME280;59654;52.216;5.616;2023-05-24T00:47:23;102216.22;;;5.01;86.04
71805;BME280;59654;52.216;5.616;2023-05-24T00:47:55;102217.97;;;4.99;85.98
71805;BME280;59654;52.216;5.616;2023-05-24T00:48:26;102216.19;;;4.98;86.47
71805;BME280;59654;52.216;5.616;2023-05-24T00:48:59;102200.34;;;4.98;86.55
71805;BME280;59654;52.216;5.616;2023-05-24T00:49:31;102213.53;;;4.96;86.09
71805;BME280;59654;52.216;5.616;2023-05-24T00:50:02;102210.03;;;4.94;86.65
71805;BME280;59654;52.216;5.616;2023-05-24T00:50:34;102212.66;;;4.93;86.39
71805;BME280;59654;52.216;5.616;2023-05-24T00:51:08;102220.59;;;4.93;86.37
71805;BME280;59654;52.216;5.616;2023-05-24T00:51:40;102212.63;;;4.90;86.14
71805;BME280;59654;52.216;5.616;2023-05-24T00:52:11;102217.00;;;4.88;85.72
71805;BME280;59654;52.216;5.616;2023-05-24T00:52:42;102214.34;;;4.86;86.14
71805;BME280;59654;52.216;5.616;2023-05-24T00:53:13;102220.53;;;4.87;86.15
71805;BME280;59654;52.216;5.616;2023-05-24T00:53:46;102220.50;;;4.85;85.40
71805;BME280;59654;52.216;5.616;2023-05-24T00:54:18;102219.63;;;4.85;85.61
71805;BME280;59654;52.216;5.616;2023-05-24T00:54:50;102221.38;;;4.84;85.14
71805;BME280;59654;52.216;5.616;2023-05-24T00:55:21;102222.25;;;4.83;85.13
71805;BME280;59654;52.216;5.616;2023-05-24T00:55:52;102213.41;;;4.80;84.79
71805;BME280;59654;52.216;5.616;2023-05-24T00:56:24;102221.34;;;4.77;84.51
71805;BME280;59654;52.216;5.616;2023-05-24T00:56:56;102222.19;;;4.74;84.91
71805;BME280;59654;52.216;5.616;2023-05-24T00:57:29;102221.31;;;4.73;84.91
71805;BME280;59654;52.216;5.616;2023-05-24T00:58:01;102230.09;;;4.72;84.88
71805;BME280;59654;52.216;5.616;2023-05-24T00:58:32;102217.75;;;4.70;84.77
71805;BME280;59654;52.216;5.616;2023-05-24T00:59:05;102227.41;;;4.68;84.73
71805;BME280;59654;52.216;5.616;2023-05-24T00:59:36;102218.59;;;4.66;84.57
71805;BME280;59654;52.216;5.616;2023-05-24T01:00:09;102215.06;;;4.65;84.46
71805;BME280;59654;52.216;5.616;2023-05-24T01:00:43;102218.56;;;4.64;84.57
71805;BME280;59654;52.216;5.616;2023-05-24T01:01:19;102220.34;;;4.62;84.63
71805;BME280;59654;52.216;5.616;2023-05-24T01:01:50;102217.72;;;4.62;84.94
71805;BME280;59654;52.216;5.616;2023-05-24T01:02:21;102219.44;;;4.63;85.08
71805;BME280;59654;52.216;5.616;2023-05-24T01:02:54;102229.16;;;4.63;85.09
71805;BME280;59654;52.216;5.616;2023-05-24T01:03:26;102230.91;;;4.64;84.98
71805;BME280;59654;52.216;5.616;2023-05-24T01:04:01;102229.16;;;4.64;85.11
71805;BME280;59654;52.216;5.616;2023-05-24T01:04:32;102230.00;;;4.63;84.89
71805;BME280;59654;52.216;5.616;2023-05-24T01:05:03;102226.53;;;4.63;84.91
71805;BME280;59654;52.216;5.616;2023-05-24T01:05:35;102221.22;;;4.60;85.14
71805;BME280;59654;52.216;5.616;2023-05-24T01:06:07;102222.97;;;4.61;85.57
71805;BME280;59654;52.216;5.616;2023-05-24T01:07:13;102225.59;;;4.59;85.75
71805;BME280;59654;52.216;5.616;2023-05-24T01:09:01;102220.34;;;4.64;86.19
71805;BME280;59654;52.216;5.616;2023-05-24T01:09:58;102217.69;;;4.64;85.57
71805;BME280;59654;52.216;5.616;2023-05-24T01:10:55;102220.34;;;4.65;85.13
71805;BME280;59654;52.216;5.616;2023-05-24T01:13:05;102221.22;;;4.64;85.48
71805;BME280;59654;52.216;5.616;2023-05-24T01:15:04;102220.34;;;4.62;85.71
71805;BME280;59654;52.216;5.616;2023-05-24T01:16:04;102225.59;;;4.59;86.07
71805;BME280;59654;52.216;5.616;2023-05-24T01:17:08;102226.47;;;4.57;86.39
71805;BME280;59654;52.216;5.616;2023-05-24T01:18:53;102222.91;;;4.55;86.30
71805;BME280;59654;52.216;5.616;2023-05-24T01:20:24;102220.28;;;4.55;86.87
71805;BME280;59654;52.216;5.616;2023-05-24T01:25:03;102222.91;;;4.55;86.66
71805;BME280;59654;52.216;5.616;2023-05-24T01:25:58;102221.13;;;4.52;87.04
71805;BME280;59654;52.216;5.616;2023-05-24T01:28:47;102214.91;;;4.47;87.49
71805;BME280;59654;52.216;5.616;2023-05-24T01:30:16;102221.09;;;4.46;87.15
71805;BME280;59654;52.216;5.616;2023-05-24T01:31:35;102229.00;;;4.48;87.36
71805;BME280;59654;52.216;5.616;2023-05-24T01:32:33;102217.56;;;4.46;87.46
71805;BME280;59654;52.216;5.616;2023-05-24T01:33:14;102224.63;;;4.47;87.14
71805;BME280;59654;52.216;5.616;2023-05-24T01:35:43;102227.22;;;4.42;87.27
71805;BME280;59654;52.216;5.616;2023-05-24T01:36:26;102229.84;;;4.42;87.23
71805;BME280;59654;52.216;5.616;2023-05-24T01:37:35;102221.03;;;4.40;86.78
71805;BME280;59654;52.216;5.616;2023-05-24T01:39:21;102219.22;;;4.37;86.68
71805;BME280;59654;52.216;5.616;2023-05-24T01:40:49;102219.19;;;4.33;86.92
71805;BME280;59654;52.216;5.616;2023-05-24T01:44:02;102229.75;;;4.34;86.51
71805;BME280;59654;52.216;5.616;2023-05-24T01:45:22;102227.97;;;4.32;86.79
71805;BME280;59654;52.216;5.616;2023-05-24T01:47:12;102232.38;;;4.28;87.04
71805;BME280;59654;52.216;5.616;2023-05-24T01:51:04;102229.69;;;4.27;87.61
71805;BME280;59654;52.216;5.616;2023-05-24T01:51:49;102219.16;;;4.27;87.71
71805;BME280;59654;52.216;5.616;2023-05-24T01:52:30;102215.63;;;4.31;87.68
71805;BME280;59654;52.216;5.616;2023-05-24T01:53:05;102223.56;;;4.29;87.47
71805;BME280;59654;52.216;5.616;2023-05-24T01:53:45;102223.56;;;4.28;87.27
71805;BME280;59654;52.216;5.616;2023-05-24T01:54:21;102220.03;;;4.27;87.67
71805;BME280;59654;52.216;5.616;2023-05-24T01:54:55;102217.38;;;4.26;86.88
71805;BME280;59654;52.216;5.616;2023-05-24T01:55:30;102220.00;;;4.26;87.42
71805;BME280;59654;52.216;5.616;2023-05-24T01:56:05;102212.97;;;4.25;87.04
71805;BME280;59654;52.216;5.616;2023-05-24T01:56:36;102215.59;;;4.25;87.22
71805;BME280;59654;52.216;5.616;2023-05-24T01:57:09;102221.75;;;4.25;87.55
71805;BME280;59654;52.216;5.616;2023-05-24T01:57:43;102224.44;;;4.27;87.97
71805;BME280;59654;52.216;5.616;2023-05-24T01:58:20;102221.78;;;4.27;87.79
71805;BME280;59654;52.216;5.616;2023-05-24T01:58:53;102221.81;;;4.28;87.41
71805;BME280;59654;52.216;5.616;2023-05-24T01:59:27;102211.25;;;4.28;87.38
71805;BME280;59654;52.216;5.616;2023-05-24T02:00:02;102213.00;;;4.29;87.51
71805;BME280;59654;52.216;5.616;2023-05-24T02:00:44;102213.91;;;4.30;87.73
71805;BME280;59654;52.216;5.616;2023-05-24T02:01:16;102215.63;;;4.31;87.25
71805;BME280;59654;52.216;5.616;2023-05-24T02:01:48;102213.88;;;4.31;86.80
71805;BME280;59654;52.216;5.616;2023-05-24T02:02:19;102214.78;;;4.32;87.03
71805;BME280;59654;52.216;5.616;2023-05-24T02:02:50;102212.13;;;4.32;86.98
71805;BME280;59654;52.216;5.616;2023-05-24T02:03:22;102210.34;;;4.31;86.17
71805;BME280;59654;52.216;5.616;2023-05-24T02:03:54;102208.63;;;4.30;86.69
71805;BME280;59654;52.216;5.616;2023-05-24T02:04:25;102205.97;;;4.30;86.84
71805;BME280;59654;52.216;5.616;2023-05-24T02:04:56;102206.84;;;4.29;86.39
71805;BME280;59654;52.216;5.616;2023-05-24T02:05:28;102209.50;;;4.29;85.88
71805;BME280;59654;52.216;5.616;2023-05-24T02:05:59;102202.44;;;4.28;85.92
71805;BME280;59654;52.216;5.616;2023-05-24T02:06:31;102205.97;;;4.28;85.93
71805;BME280;59654;52.216;5.616;2023-05-24T02:07:02;102206.81;;;4.26;86.25
71805;BME280;59654;52.216;5.616;2023-05-24T02:07:33;102212.06;;;4.23;86.66
71805;BME280;59654;52.216;5.616;2023-05-24T02:08:05;102209.41;;;4.21;86.79
71805;BME280;59654;52.216;5.616;2023-05-24T02:08:36;102206.75;;;4.21;86.61
71805;BME280;59654;52.216;5.616;2023-05-24T02:09:07;102208.50;;;4.21;87.25
71805;BME280;59654;52.216;5.616;2023-05-24T02:09:38;102206.72;;;4.18;86.96
71805;BME280;59654;52.216;5.616;2023-05-24T02:10:10;102202.28;;;4.16;87.31
71805;BME280;59654;52.216;5.616;2023-05-24T02:10:41;102205.81;;;4.13;87.25
71805;BME280;59654;52.216;5.616;2023-05-24T02:11:11;102207.59;;;4.14;87.41
71805;BME280;59654;52.216;5.616;2023-05-24T02:11:42;102211.06;;;4.15;87.50
71805;BME280;59654;52.216;5.616;2023-05-24T02:12:13;102202.31;;;4.14;87.59
71805;BME280;59654;52.216;5.616;2023-05-24T02:12:44;102201.41;;;4.15;87.63
71805;BME280;59654;52.216;5.616;2023-05-24T02:13:15;102203.16;;;4.15;87.34
71805;BME280;59654;52.216;5.616;2023-05-24T02:13:47;102209.31;;;4.15;87.40
71805;BME280;59654;52.216;5.616;2023-05-24T02:14:18;102205.81;;;4.13;87.08
71805;BME280;59654;52.216;5.616;2023-05-24T02:14:49;102209.31;;;4.12;87.16
71805;BME280;59654;52.216;5.616;2023-05-24T02:15:20;102213.72;;;4.12;87.10
71805;BME280;59654;52.216;5.616;2023-05-24T02:15:51;102205.78;;;4.12;87.30
71805;BME280;59654;52.216;5.616;2023-05-24T02:16:23;102205.78;;;4.10;87.00
71805;BME280;59654;52.216;5.616;2023-05-24T02:16:56;102211.06;;;4.10;87.11
71805;BME280;59654;52.216;5.616;2023-05-24T02:17:28;102208.44;;;4.12;87.45
71805;BME280;59654;52.216;5.616;2023-05-24T02:18:02;102207.53;;;4.10;87.19
71805;BME280;59654;52.216;5.616;2023-05-24T02:18:33;102203.16;;;4.12;86.93
71805;BME280;59654;52.216;5.616;2023-05-24T02:19:05;102208.44;;;4.12;86.92
71805;BME280;59654;52.216;5.616;2023-05-24T02:19:35;102211.09;;;4.13;87.19
71805;BME280;59654;52.216;5.616;2023-05-24T02:20:10;102200.53;;;4.12;86.48
71805;BME280;59654;52.216;5.616;2023-05-24T02:20:42;102197.88;;;4.12;86.39
71805;BME280;59654;52.216;5.616;2023-05-24T02:21:13;102198.75;;;4.11;85.54
71805;BME280;59654;52.216;5.616;2023-05-24T02:21:44;102197.84;;;4.10;86.03
71805;BME280;59654;52.216;5.616;2023-05-24T02:22:15;102195.19;;;4.09;86.11
71805;BME280;59654;52.216;5.616;2023-05-24T02:22:46;102190.78;;;4.06;85.81
71805;BME280;59654;52.216;5.616;2023-05-24T02:23:17;102194.28;;;4.05;86.10
71805;BME280;59654;52.216;5.616;2023-05-24T02:23:48;102191.63;;;4.03;86.38
71805;BME280;59654;52.216;5.616;2023-05-24T02:24:19;102192.50;;;4.02;86.56
71805;BME280;59654;52.216;5.616;2023-05-24T02:24:50;102192.50;;;4.02;86.65
71805;BME280;59654;52.216;5.616;2023-05-24T02:25:21;102203.03;;;4.02;86.50
71805;BME280;59654;52.216;5.616;2023-05-24T02:25:52;102194.19;;;3.99;86.79
71805;BME280;59654;52.216;5.616;2023-05-24T02:26:23;102199.50;;;4.00;86.55
71805;BME280;59654;52.216;5.616;2023-05-24T02:26:54;102198.63;;;4.00;87.24
71805;BME280;59654;52.216;5.616;2023-05-24T02:27:25;102198.59;;;3.98;86.95
71805;BME280;59654;52.216;5.616;2023-05-24T02:28:00;102204.75;;;3.96;87.53
71805;BME280;59654;52.216;5.616;2023-05-24T02:28:31;102197.69;;;3.95;87.34
71805;BME280;59654;52.216;5.616;2023-05-24T02:29:02;102198.59;;;3.95;87.65
71805;BME280;59654;52.216;5.616;2023-05-24T02:29:33;102202.97;;;3.95;87.88
71805;BME280;59654;52.216;5.616;2023-05-24T02:30:05;102195.03;;;3.93;87.56
71805;BME280;59654;52.216;5.616;2023-05-24T02:30:37;102199.44;;;3.93;87.49
71805;BME280;59654;52.216;5.616;2023-05-24T02:31:08;102201.19;;;3.92;87.64
71805;BME280;59654;52.216;5.616;2023-05-24T02:31:39;102206.44;;;3.91;87.86
71805;BME280;59654;52.216;5.616;2023-05-24T02:32:10;102210.84;;;3.90;87.61
71805;BME280;59654;52.216;5.616;2023-05-24T02:32:41;102202.91;;;3.89;87.92
71805;BME280;59654;52.216;5.616;2023-05-24T02:33:12;102203.75;;;3.88;87.75
71805;BME280;59654;52.216;5.616;2023-05-24T02:33:43;102204.66;;;3.88;87.57
71805;BME280;59654;52.216;5.616;2023-05-24T02:34:14;102202.91;;;3.89;87.69
71805;BME280;59654;52.216;5.616;2023-05-24T02:34:45;102201.13;;;3.88;87.33
71805;BME280;59654;52.216;5.616;2023-05-24T02:35:16;102204.63;;;3.87;86.86
71805;BME280;59654;52.216;5.616;2023-05-24T02:35:47;102209.03;;;3.88;87.59
71805;BME280;59654;52.216;5.616;2023-05-24T02:36:18;102207.25;;;3.85;87.73
71805;BME280;59654;52.216;5.616;2023-05-24T02:36:49;102209.84;;;3.82;87.55
71805;BME280;59654;52.216;5.616;2023-05-24T02:37:21;102209.84;;;3.82;87.84
71805;BME280;59654;52.216;5.616;2023-05-24T02:37:52;102207.22;;;3.81;87.78
71805;BME280;59654;52.216;5.616;2023-05-24T02:38:23;102202.78;;;3.78;87.11
71805;BME280;59654;52.216;5.616;2023-05-24T02:38:53;102206.28;;;3.77;87.39
71805;BME280;59654;52.216;5.616;2023-05-24T02:39:26;102194.84;;;3.75;87.07
71805;BME280;59654;52.216;5.616;2023-05-24T02:39:56;102202.75;;;3.75;87.12
71805;BME280;59654;52.216;5.616;2023-05-24T02:40:27;102200.13;;;3.75;86.34
71805;BME280;59654;52.216;5.616;2023-05-24T02:40:58;102200.94;;;3.73;86.45
71805;BME280;59654;52.216;5.616;2023-05-24T02:41:30;102202.66;;;3.69;87.31
71805;BME280;59654;52.216;5.616;2023-05-24T02:42:01;102201.78;;;3.68;87.05
71805;BME280;59654;52.216;5.616;2023-05-24T02:42:34;102208.81;;;3.68;87.72
71805;BME280;59654;52.216;5.616;2023-05-24T02:43:05;102204.44;;;3.70;87.42
71805;BME280;59654;52.216;5.616;2023-05-24T02:43:36;102198.25;;;3.68;86.97
71805;BME280;59654;52.216;5.616;2023-05-24T02:44:07;102207.03;;;3.67;87.24
71805;BME280;59654;52.216;5.616;2023-05-24T02:44:38;102207.91;;;3.66;87.54
71805;BME280;59654;52.216;5.616;2023-05-24T02:45:09;102201.75;;;3.67;87.57
71805;BME280;59654;52.216;5.616;2023-05-24T02:45:40;102203.53;;;3.68;87.05
71805;BME280;59654;52.216;5.616;2023-05-24T02:46:11;102200.00;;;3.67;87.48
71805;BME280;59654;52.216;5.616;2023-05-24T02:46:42;102199.13;;;3.65;87.57
71805;BME280;59654;52.216;5.616;2023-05-24T02:47:14;102199.97;;;3.66;87.60
71805;BME280;59654;52.216;5.616;2023-05-24T02:47:45;102199.97;;;3.66;87.72
71805;BME280;59654;52.216;5.616;2023-05-24T02:48:16;102201.78;;;3.65;87.77
71805;BME280;59654;52.216;5.616;2023-05-24T02:48:47;102199.97;;;3.66;88.21
71805;BME280;59654;52.216;5.616;2023-05-24T02:49:19;102206.16;;;3.66;87.63
71805;BME280;59654;52.216;5.616;2023-05-24T02:49:50;102201.75;;;3.67;87.37
71805;BME280;59654;52.216;5.616;2023-05-24T02:50:21;102207.06;;;3.68;88.00
71805;BME280;59654;52.216;5.616;2023-05-24T02:50:52;102199.13;;;3.67;87.85
71805;BME280;59654;52.216;5.616;2023-05-24T02:51:23;102200.03;;;3.69;87.44
71805;BME280;59654;52.216;5.616;2023-05-24T02:51:54;102207.94;;;3.69;87.54
71805;BME280;59654;52.216;5.616;2023-05-24T02:52:25;102205.31;;;3.71;87.49
71805;BME280;59654;52.216;5.616;2023-05-24T02:52:56;102196.53;;;3.70;86.90
71805;BME280;59654;52.216;5.616;2023-05-24T02:53:31;102198.28;;;3.70;86.96
71805;BME280;59654;52.216;5.616;2023-05-24T02:54:02;102206.22;;;3.71;86.95
71805;BME280;59654;52.216;5.616;2023-05-24T02:54:33;102202.72;;;3.72;86.98
71805;BME280;59654;52.216;5.616;2023-05-24T02:55:08;102203.56;;;3.71;86.97
71805;BME280;59654;52.216;5.616;2023-05-24T02:55:39;102201.81;;;3.70;87.64
71805;BME280;59654;52.216;5.616;2023-05-24T02:56:13;102197.41;;;3.71;87.10
71805;BME280;59654;52.216;5.616;2023-05-24T02:56:46;102201.81;;;3.72;86.89
71805;BME280;59654;52.216;5.616;2023-05-24T02:57:20;102196.53;;;3.72;87.37
71805;BME280;59654;52.216;5.616;2023-05-24T02:57:51;102204.47;;;3.72;87.16
71805;BME280;59654;52.216;5.616;2023-05-24T02:58:24;102200.94;;;3.71;86.61
71805;BME280;59654;52.216;5.616;2023-05-24T02:58:59;102201.81;;;3.72;87.13
71805;BME280;59654;52.216;5.616;2023-05-24T02:59:29;102200.94;;;3.71;86.93
71805;BME280;59654;52.216;5.616;2023-05-24T03:00:00;102195.66;;;3.71;87.30
71805;BME280;59654;52.216;5.616;2023-05-24T03:00:32;102205.31;;;3.71;86.86
71805;BME280;59654;52.216;5.616;2023-05-24T03:01:03;102202.69;;;3.71;87.12
71805;BME280;59654;52.216;5.616;2023-05-24T03:01:34;102200.94;;;3.71;86.68
71805;BME280;59654;52.216;5.616;2023-05-24T03:02:06;102205.31;;;3.71;87.04
71805;BME280;59654;52.216;5.616;2023-05-24T03:02:37;102200.03;;;3.71;87.05
71805;BME280;59654;52.216;5.616;2023-05-24T03:03:10;102199.16;;;3.70;86.75
71805;BME280;59654;52.216;5.616;2023-05-24T03:03:41;102209.72;;;3.70;87.06
71805;BME280;59654;52.216;5.616;2023-05-24T03:04:12;102197.38;;;3.69;86.96
71805;BME280;59654;52.216;5.616;2023-05-24T03:04:42;102201.81;;;3.72;87.01
71805;BME280;59654;52.216;5.616;2023-05-24T03:05:16;102197.44;;;3.72;87.62
71805;BME280;59654;52.216;5.616;2023-05-24T03:05:47;102193.94;;;3.73;87.59
71805;BME280;59654;52.216;5.616;2023-05-24T03:06:18;102196.56;;;3.73;86.74
71805;BME280;59654;52.216;5.616;2023-05-24T03:06:49;102200.06;;;3.72;86.79
71805;BME280;59654;52.216;5.616;2023-05-24T03:07:20;102196.53;;;3.72;86.63
71805;BME280;59654;52.216;5.616;2023-05-24T03:07:51;102193.94;;;3.73;86.74
71805;BME280;59654;52.216;5.616;2023-05-24T03:08:23;102200.97;;;3.74;86.33
71805;BME280;59654;52.216;5.616;2023-05-24T03:08:54;102195.69;;;3.73;86.61
71805;BME280;59654;52.216;5.616;2023-05-24T03:09:25;102191.28;;;3.73;86.04
71805;BME280;59654;52.216;5.616;2023-05-24T03:09:57;102196.56;;;3.73;86.31
71805;BME280;59654;52.216;5.616;2023-05-24T03:10:27;102193.03;;;3.71;86.26
71805;BME280;59654;52.216;5.616;2023-05-24T03:10:58;102189.53;;;3.72;86.30
71805;BME280;59654;52.216;5.616;2023-05-24T03:11:29;102198.28;;;3.71;86.16
71805;BME280;59654;52.216;5.616;2023-05-24T03:12:01;102198.28;;;3.70;86.32
71805;BME280;59654;52.216;5.616;2023-05-24T03:12:34;102196.50;;;3.68;86.47
71805;BME280;59654;52.216;5.616;2023-05-24T03:13:05;102188.56;;;3.67;86.41
71805;BME280;59654;52.216;5.616;2023-05-24T03:13:36;102199.13;;;3.67;86.49
71805;BME280;59654;52.216;5.616;2023-05-24T03:14:08;102186.78;;;3.66;86.17
71805;BME280;59654;52.216;5.616;2023-05-24T03:14:42;102193.84;;;3.64;86.48
71805;BME280;59654;52.216;5.616;2023-05-24T03:15:13;102196.50;;;3.65;86.82
71805;BME280;59654;52.216;5.616;2023-05-24T03:15:44;102195.59;;;3.63;86.64
71805;BME280;59654;52.216;5.616;2023-05-24T03:16:16;102192.94;;;3.62;86.70
71805;BME280;59654;52.216;5.616;2023-05-24T03:16:50;102192.94;;;3.62;86.68
71805;BME280;59654;52.216;5.616;2023-05-24T03:17:21;102191.16;;;3.61;87.04
71805;BME280;59654;52.216;5.616;2023-05-24T03:17:52;102199.09;;;3.62;87.35
71805;BME280;59654;52.216;5.616;2023-05-24T03:18:24;102194.69;;;3.61;86.84
71805;BME280;59654;52.216;5.616;2023-05-24T03:18:55;102192.03;;;3.60;86.80
71805;BME280;59654;52.216;5.616;2023-05-24T03:19:26;102196.44;;;3.61;87.14